Rio, IL (61472)

5:05 AM CDT on August 30, 2015 (GMT -0500)
East Burch St | | Change Station
CLOSE
Current Station
Personal Weather Station
Location: Wataga, IL
Elevation: 840 ft
Nearby Weather Stations

Elev 840 ft 41.03 °N, 90.28 °W | Updated 9 seconds ago

Fog
Fog
63.7 °F
Feels Like 63.7 °F
N
1.0
Wind Variable Wind from North
Gusts 3.0 mph

Today
High -- | Low -- °F
--% Chance of Precip.
Yesterday
High -- | Low -- °F
Precip. -- in
6:25 AM 7:37 PM
Full, 99% visible
Pressure 30.03 in
Visibility 0.2 miles
Clouds Overcast 200 ft
Dew Point 62 °F
Humidity 96%
Rainfall 0.00 in
Snow Depth Not available.
UV 0 out of 12
Pollen 1.20 out of 12
Air Quality Not available.
Flu Activity Not available.
METAR KGBG 300955Z AUTO 35003KT M1/4SM FG OVC002 17/17 A3003 RMK AO2 T01700168
Pressure 30.03 in
Visibility 0.2 miles
Clouds Overcast 200 ft
Dew Point 62 °F
Humidity 96%
Rainfall 0.00 in
Snow Depth Not available.
UV 0 out of 12
Pollen 1.20 out of 12
Air Quality Not available.
Flu Activity Not available.
METAR KGBG 300955Z AUTO 35003KT M1/4SM FG OVC002 17/17 A3003 RMK AO2 T01700168

10-Day Weather Forecast

×

Almanac

Astronomy

Aug. 30, 2015 Rise Set
Actual Time
Civil Twilight
Nautical Twilight
Astronomical Twilight
Moon
Length of Visible Light
Length of Day
Tomorrow will be .
, % of the Moon is Illuminated

Today's Extremes

State Highs State Lows

Community

WunderPhotos

Upload Photos

1,850,919 photos uploaded!

WunderBlogs® & News

Nearby

Air Quality

  Air Quality AQ Index Pollutant
Not available.

Snow Depth

Station Depth Elevation

Earthquake Activity

City Distance Mag. Time & Date
Minimum magnitude displayed is 2.5.

Coastal Water Temperatures

Place Temperature

Stations

Nearby Weather Stations

Station Location Temp. Windchill Dew Point Humidity Wind Precip. Elev Updated Type